Airfield :
LOGIN :

Register | Disclaimer

   EN    FR    IT 

 










Legend :    VFR   Marginal VFR   IFR   Intensive IFR   Very Intensive IFR
Visi :
Ceiling :
>= 8 km
>= 3000ft
5 to 8 km
1000 to 3000 ft
1500m to 5 km
500 to 1000 ft
800 to 1500m
200 to 500 ft
< 800m
< 200 ft
Symbols :   Thunderstorms  Fog  Heavy snow  Heavy precipitations  Wind > 20 kt
SIGMETs :     Misc.  Thunderstorms  Icing  Turbulence  Mountain Waves  Volcanic Ashes







- Airport Elevation : 187 ft


ETNW - Wunstorf AB

CURRENT METAR :
  • 180650Z 13003KT 4500 BR BKN005 11/11 Q1015 YLO YLO TEMPO RED

EXPIRED METARs :
  • 180635Z 11005KT 3500 BR BKN005 11/11 Q1015 YLO YLO TEMPO RED
  • 180620Z 11004KT 2000 BR BKN006 BKN012 11/11 Q1016 YLO YLO TEMPO RED
  • 180520Z 00000KT 2500 VCFG BR FEW001 BKN006 09/09 Q1016 YLO YLO TEMPO RED
  • 180445Z 03002KT 0600 FG FEW001 BKN006 09/09 Q1016 RED RED
  • 180420Z 16002KT 0100 FG VV001 09/09 Q1016 RED RED

TAF AMD TAF ETNW
Valid from the 18 at 05:00 until the 19 at 05:00 UTC


180530Z 1805/1905 08004KT 5000 BR BKN005
TEMPO 1805/1808 VRB03KT 0600 FG BKN001
BECMG 1808/1810 11006KT 8000 NSW BKN010
BECMG 1810/1812 11006KT 9999 NSW SCT015 SCT040
BECMG 1818/1820 VRB02KT 0500 FG VV001 BY ETGL
No reported NOTAMs for that airfield.



MET'MAP, your aeronautical weather chart ! - Copyright ORBIFLY December 2007 - Disclaimer

ORBIFLY MET'MAP TEAM :

Programming & Development : Alexandra Zaïnal
Concept & Development : Baudouin d'Aumeries
Co-Development & Prog : Marc-Olivier Méhu
Technical & hardware support : Manuel Goepfert

Contact : metmap@orbifly.com




SOURCES & CREDITS :

   NOAA